createdAt,value
2023-03-12T00:01:59.791Z,5.49
2023-03-12T00:04:27.535Z,5.50
2023-03-12T00:06:54.359Z,5.47
2023-03-12T00:09:21.286Z,5.47
2023-03-12T00:11:48.158Z,5.47
2023-03-12T00:14:15.462Z,5.45
2023-03-12T00:16:42.271Z,5.46
2023-03-12T00:19:12.781Z,5.42
2023-03-12T00:21:40.378Z,5.42
2023-03-12T00:24:08.277Z,5.41
2023-03-12T00:26:35.484Z,5.40
2023-03-12T00:29:02.401Z,5.38
2023-03-12T00:31:32.900Z,5.39
2023-03-12T00:34:01.509Z,5.40
2023-03-12T00:36:30.726Z,5.48
2023-03-12T00:38:59.146Z,5.42
2023-03-12T00:41:26.910Z,5.41
2023-03-12T00:43:53.815Z,5.39
2023-03-12T00:46:21.353Z,5.36
2023-03-12T00:48:48.458Z,5.36
2023-03-12T00:51:15.327Z,5.35
2023-03-12T00:53:42.333Z,5.30
2023-03-12T00:56:09.437Z,5.29
2023-03-12T00:58:36.381Z,5.27
2023-03-12T01:01:03.800Z,5.22
2023-03-12T01:03:30.739Z,5.19
2023-03-12T01:05:57.646Z,5.17
2023-03-12T01:08:25.154Z,5.14
2023-03-12T01:10:52.331Z,5.12
2023-03-12T01:13:19.543Z,5.11
2023-03-12T01:15:46.463Z,5.09
2023-03-12T01:18:13.271Z,5.03
2023-03-12T01:20:41.128Z,4.97
2023-03-12T01:23:09.119Z,4.94
2023-03-12T01:25:37.065Z,4.88
2023-03-12T01:28:04.709Z,4.85
2023-03-12T01:30:31.595Z,4.83
2023-03-12T01:32:58.961Z,4.83
2023-03-12T01:35:26.506Z,4.76
2023-03-12T01:37:53.509Z,4.71
2023-03-12T01:40:26.175Z,4.62
2023-03-12T01:42:57.727Z,4.61
2023-03-12T01:46:18.689Z,4.56
2023-03-12T01:48:53.792Z,4.54
2023-03-12T01:51:22.384Z,4.49
2023-03-12T01:53:54.313Z,4.48
2023-03-12T01:56:21.961Z,4.46
2023-03-12T01:58:53.005Z,4.44
2023-03-12T02:01:21.724Z,4.47
2023-03-12T02:03:53.872Z,4.43
2023-03-12T02:06:28.735Z,4.37
2023-03-12T02:08:57.086Z,4.31
2023-03-12T02:11:23.887Z,4.30
2023-03-12T02:13:50.986Z,4.25
2023-03-12T02:16:17.874Z,4.20
2023-03-12T02:18:46.923Z,4.17
2023-03-12T02:21:25.791Z,4.16
2023-03-12T02:24:19.499Z,4.09
2023-03-12T02:26:46.489Z,4.05
2023-03-12T02:29:13.850Z,4.04
2023-03-12T02:31:46.020Z,3.97
2023-03-12T02:34:12.931Z,3.94
2023-03-12T02:36:39.803Z,3.93
2023-03-12T02:39:07.119Z,3.93
2023-03-12T02:41:41.614Z,3.91
2023-03-12T02:44:14.431Z,3.84
2023-03-12T02:46:44.612Z,3.81
2023-03-12T02:49:13.359Z,3.77
2023-03-12T02:51:42.460Z,3.74
2023-03-12T02:54:11.220Z,3.73
2023-03-12T02:56:38.820Z,3.71
2023-03-12T02:59:06.582Z,3.66
2023-03-12T03:01:36.747Z,3.68
2023-03-12T03:04:05.768Z,3.68
2023-03-12T03:06:33.019Z,3.67
2023-03-12T03:09:00.025Z,3.62
2023-03-12T03:11:26.845Z,3.65
2023-03-12T03:13:54.943Z,3.62
2023-03-12T03:16:22.400Z,3.58
2023-03-12T03:18:49.345Z,3.55
2023-03-12T03:21:16.941Z,3.53
2023-03-12T03:23:45.688Z,3.48
2023-03-12T03:26:12.788Z,3.46
2023-03-12T03:28:40.028Z,3.46
2023-03-12T03:31:07.296Z,3.41
2023-03-12T03:33:36.400Z,3.36
2023-03-12T03:36:04.998Z,3.33
2023-03-12T03:38:32.806Z,3.35
2023-03-12T03:40:59.912Z,3.28
2023-03-12T03:43:27.367Z,3.26
2023-03-12T03:46:02.964Z,3.24
2023-03-12T03:48:30.613Z,3.20
2023-03-12T03:51:01.945Z,3.22
2023-03-12T03:53:28.818Z,3.20
2023-03-12T03:55:56.036Z,3.21
2023-03-12T03:58:23.144Z,3.19
2023-03-12T04:00:50.440Z,3.17
2023-03-12T04:03:17.364Z,3.14
2023-03-12T04:05:45.512Z,3.06
2023-03-12T04:08:13.666Z,3.05
2023-03-12T04:10:41.093Z,2.98
2023-03-12T04:13:08.030Z,2.95
2023-03-12T04:15:34.805Z,2.90
2023-03-12T04:18:01.779Z,2.93
2023-03-12T04:20:28.590Z,2.81
2023-03-12T04:22:55.484Z,2.84
2023-03-12T04:25:22.364Z,2.86
2023-03-12T04:27:49.289Z,2.75
2023-03-12T04:30:16.176Z,2.71
2023-03-12T04:32:43.040Z,2.65
2023-03-12T04:35:09.913Z,2.68
2023-03-12T04:37:36.698Z,2.62
2023-03-12T04:40:07.570Z,2.61
2023-03-12T04:42:35.658Z,2.56
2023-03-12T04:45:03.807Z,2.45
2023-03-12T04:47:31.844Z,2.47
2023-03-12T04:49:59.013Z,2.44
2023-03-12T04:52:27.035Z,2.41
2023-03-12T04:54:54.717Z,2.37
2023-03-12T04:57:21.688Z,2.34
2023-03-12T04:59:48.637Z,2.32
2023-03-12T05:02:15.587Z,2.32
2023-03-12T05:04:42.435Z,2.31
2023-03-12T05:07:09.283Z,2.34
2023-03-12T05:09:36.371Z,2.34
2023-03-12T05:12:03.204Z,2.31
2023-03-12T05:14:30.012Z,2.24
2023-03-12T05:16:56.844Z,2.24
2023-03-12T05:19:23.634Z,2.26
2023-03-12T05:21:50.547Z,2.20
2023-03-12T05:24:18.123Z,2.19
2023-03-12T05:26:44.951Z,2.15
2023-03-12T05:29:11.801Z,2.08
2023-03-12T05:31:38.644Z,2.09
2023-03-12T05:34:05.557Z,2.06
2023-03-12T05:36:32.465Z,2.03
2023-03-12T05:38:59.262Z,2.00
2023-03-12T05:41:28.636Z,2.00
2023-03-12T05:43:57.441Z,1.93
2023-03-12T05:46:25.841Z,1.97
2023-03-12T05:48:53.181Z,1.92
2023-03-12T05:51:20.802Z,1.94
2023-03-12T05:53:47.900Z,1.97
2023-03-12T05:56:16.599Z,1.98
2023-03-12T05:58:44.023Z,1.97
2023-03-12T06:01:19.427Z,1.97
2023-03-12T06:03:46.937Z,1.95
2023-03-12T06:06:14.460Z,1.97
2023-03-12T06:08:42.549Z,1.95
2023-03-12T06:11:09.949Z,1.96
2023-03-12T06:13:36.778Z,1.93
2023-03-12T06:16:15.548Z,1.92
2023-03-12T06:18:42.369Z,1.91
2023-03-12T06:21:18.434Z,1.87
2023-03-12T06:23:46.203Z,1.85
2023-03-12T06:26:13.662Z,1.87
2023-03-12T06:28:40.975Z,1.87
2023-03-12T06:31:08.670Z,1.87
2023-03-12T06:33:35.938Z,1.89
2023-03-12T06:36:05.152Z,1.90
2023-03-12T06:38:32.509Z,1.94
2023-03-12T06:41:02.269Z,1.95
2023-03-12T06:43:31.386Z,2.00
2023-03-12T06:46:00.113Z,2.04
2023-03-12T06:48:28.791Z,2.07
2023-03-12T06:50:56.010Z,2.12
2023-03-12T06:53:25.355Z,2.15
2023-03-12T06:55:52.283Z,2.20
2023-03-12T06:58:19.452Z,2.24
2023-03-12T07:00:46.253Z,2.29
2023-03-12T07:03:13.153Z,2.32
2023-03-12T07:05:40.285Z,2.36
2023-03-12T07:08:07.131Z,2.40
2023-03-12T07:10:34.015Z,2.46
2023-03-12T07:13:00.933Z,2.50
2023-03-12T07:15:27.810Z,2.54
2023-03-12T07:17:54.633Z,2.59
2023-03-12T07:20:21.554Z,2.65
2023-03-12T07:22:48.486Z,2.68
2023-03-12T07:25:17.286Z,2.73
2023-03-12T07:27:45.403Z,2.78
2023-03-12T07:30:12.591Z,2.83
2023-03-12T07:32:39.509Z,2.88
2023-03-12T07:35:06.780Z,2.93
2023-03-12T07:37:33.553Z,2.96
2023-03-12T07:40:00.464Z,3.00
2023-03-12T07:42:27.359Z,3.05
2023-03-12T07:44:54.212Z,3.11
2023-03-12T07:47:24.372Z,3.15
2023-03-12T07:49:51.991Z,3.21
2023-03-12T07:52:20.326Z,3.24
2023-03-12T07:54:47.887Z,3.30
2023-03-12T07:57:15.072Z,3.36
2023-03-12T07:59:42.122Z,3.41
2023-03-12T08:02:10.850Z,3.46
2023-03-12T08:04:37.878Z,3.52
2023-03-12T08:07:07.372Z,3.57
2023-03-12T08:09:38.700Z,3.62
2023-03-12T08:12:08.593Z,3.68
2023-03-12T08:14:35.945Z,3.73
2023-03-12T08:17:03.005Z,3.78
2023-03-12T08:19:29.822Z,3.85
2023-03-12T08:21:58.100Z,3.91
2023-03-12T08:24:25.157Z,3.98
2023-03-12T08:26:52.033Z,4.03
2023-03-12T08:29:18.933Z,4.09
2023-03-12T08:32:03.437Z,4.14
2023-03-12T08:34:31.142Z,4.20
2023-03-12T08:36:57.943Z,4.27
2023-03-12T08:39:24.814Z,4.34
2023-03-12T08:41:55.484Z,4.38
2023-03-12T08:44:26.275Z,4.44
2023-03-12T08:46:53.438Z,4.50
2023-03-12T08:49:21.519Z,4.54
2023-03-12T08:51:48.551Z,4.61
2023-03-12T08:54:15.526Z,4.67
2023-03-12T08:56:43.689Z,4.73
2023-03-12T08:59:11.654Z,4.79
2023-03-12T09:01:38.752Z,4.85
2023-03-12T09:04:06.343Z,4.93
2023-03-12T09:06:35.416Z,4.99
2023-03-12T09:09:05.154Z,5.04
2023-03-12T09:11:33.493Z,5.11
2023-03-12T09:16:48.243Z,5.28
2023-03-12T09:19:15.856Z,5.35
2023-03-12T09:21:42.728Z,5.42
2023-03-12T09:24:10.436Z,5.51
2023-03-12T09:26:37.246Z,5.59
2023-03-12T09:29:04.248Z,5.65
2023-03-12T09:31:31.617Z,5.73
2023-03-12T09:33:58.536Z,5.80
2023-03-12T09:36:25.347Z,5.86
2023-03-12T09:38:52.152Z,5.95
2023-03-12T09:41:27.091Z,6.02
2023-03-12T09:44:02.480Z,6.08
2023-03-12T09:46:43.402Z,6.14
2023-03-12T09:49:23.172Z,6.21
2023-03-12T09:51:55.552Z,6.26
2023-03-12T09:54:53.821Z,6.31
2023-03-12T09:57:24.607Z,6.38
2023-03-12T09:59:53.055Z,6.44
2023-03-12T10:02:49.144Z,6.52
2023-03-12T10:05:42.233Z,6.59
2023-03-12T10:08:28.255Z,6.67
2023-03-12T10:11:08.089Z,6.72
2023-03-12T10:13:37.595Z,6.82
2023-03-12T10:16:07.470Z,6.88
2023-03-12T10:18:58.972Z,6.94
2023-03-12T10:21:39.898Z,7.01
2023-03-12T10:24:29.032Z,7.09
2023-03-12T10:26:58.359Z,7.17
2023-03-12T10:29:30.435Z,7.23
2023-03-12T10:32:05.984Z,7.28
2023-03-12T10:34:44.700Z,7.34
2023-03-12T10:37:37.299Z,7.41
2023-03-12T10:40:06.115Z,7.49
2023-03-12T10:42:33.276Z,7.56
2023-03-12T10:45:05.970Z,7.61
2023-03-12T10:47:43.664Z,7.66
2023-03-12T10:50:16.689Z,7.69
2023-03-12T10:52:44.350Z,7.75
2023-03-12T10:55:20.615Z,7.80
2023-03-12T10:57:48.274Z,7.84
2023-03-12T11:00:27.169Z,7.91
2023-03-12T11:03:19.043Z,7.94
2023-03-12T11:05:49.181Z,7.97
2023-03-12T11:08:33.611Z,8.03
2023-03-12T11:11:02.735Z,8.02
2023-03-12T11:14:19.331Z,8.04
2023-03-12T11:16:46.381Z,8.10
2023-03-12T11:19:25.800Z,8.12
2023-03-12T11:22:01.950Z,8.17
2023-03-12T11:24:58.090Z,8.22
2023-03-12T11:27:41.057Z,8.27
2023-03-12T11:30:15.455Z,8.31
2023-03-12T11:33:09.812Z,8.37
2023-03-12T11:36:06.338Z,8.42
2023-03-12T11:39:23.687Z,8.48
2023-03-12T11:42:20.780Z,8.54
2023-03-12T11:45:36.133Z,8.60
2023-03-12T11:48:33.219Z,8.67
2023-03-12T11:51:17.485Z,8.73
2023-03-12T11:53:58.322Z,8.76
2023-03-12T11:56:36.010Z,8.80
2023-03-12T11:59:27.751Z,8.86
2023-03-12T12:01:57.314Z,8.93
2023-03-12T12:05:01.701Z,8.98
2023-03-12T12:07:53.138Z,9.03
2023-03-12T12:10:26.486Z,9.09
2023-03-12T12:13:10.836Z,9.13
2023-03-12T12:16:07.965Z,9.20
2023-03-12T12:18:44.185Z,9.28
2023-03-12T12:21:23.199Z,9.33
2023-03-12T12:23:58.646Z,9.35
2023-03-12T12:26:54.841Z,9.35
2023-03-12T12:29:51.510Z,9.37
2023-03-12T12:32:30.362Z,9.40
2023-03-12T12:34:57.349Z,9.46
2023-03-12T12:37:46.858Z,9.47
2023-03-12T12:40:16.776Z,9.48
2023-03-12T12:43:04.367Z,9.57
2023-03-12T12:45:31.483Z,9.62
2023-03-12T12:48:06.620Z,9.70
2023-03-12T12:50:38.600Z,9.79
2023-03-12T12:53:26.771Z,9.84
2023-03-12T12:56:15.407Z,9.91
2023-03-12T12:59:01.873Z,9.98
2023-03-12T13:01:30.666Z,10.04
2023-03-12T13:07:28.114Z,10.18
2023-03-12T13:09:59.288Z,10.24
2023-03-12T13:12:50.447Z,10.31
2023-03-12T13:15:29.322Z,10.39
2023-03-12T13:18:29.781Z,10.45
2023-03-12T13:21:40.621Z,10.53
2023-03-12T13:24:33.217Z,10.68
2023-03-12T13:27:39.879Z,10.75
2023-03-12T13:30:46.182Z,10.81
2023-03-12T13:33:16.863Z,10.88
2023-03-12T13:36:14.024Z,10.93
2023-03-12T13:38:58.968Z,11.02
2023-03-12T13:41:42.189Z,11.08
2023-03-12T13:44:27.895Z,11.17
2023-03-12T13:47:11.186Z,11.23
2023-03-12T13:49:48.019Z,11.28
2023-03-12T13:52:19.899Z,11.32
2023-03-12T13:54:51.450Z,11.36
2023-03-12T13:57:39.143Z,11.41
2023-03-12T14:00:13.144Z,11.45
2023-03-12T14:02:49.114Z,11.46
2023-03-12T14:05:18.499Z,11.50
2023-03-12T14:08:22.395Z,11.57
2023-03-12T14:11:05.418Z,11.61
2023-03-12T14:13:42.677Z,11.60
2023-03-12T14:16:19.299Z,11.59
2023-03-12T14:18:47.431Z,11.56
2023-03-12T14:25:02.307Z,11.56
2023-03-12T14:27:35.121Z,11.56
2023-03-12T14:30:31.045Z,11.55
2023-03-12T14:33:05.840Z,11.58
2023-03-12T14:35:38.950Z,11.55
2023-03-12T14:38:35.138Z,11.56
2023-03-12T14:41:06.398Z,11.58
2023-03-12T14:43:51.599Z,11.52
2023-03-12T14:46:21.608Z,11.49
2023-03-12T14:48:53.535Z,11.48
2023-03-12T14:51:30.124Z,11.47
2023-03-12T14:54:02.650Z,11.44
2023-03-12T14:56:35.990Z,11.43
2023-03-12T14:59:38.020Z,11.42
2023-03-12T15:02:14.965Z,11.42
2023-03-12T15:04:42.641Z,11.43
2023-03-12T15:07:17.700Z,11.43
2023-03-12T15:09:50.924Z,11.43
2023-03-12T15:12:47.706Z,11.40
2023-03-12T15:15:43.420Z,11.43
2023-03-12T15:18:22.918Z,11.42
2023-03-12T15:20:53.771Z,11.38
2023-03-12T15:23:23.408Z,11.37
2023-03-12T15:26:13.715Z,11.35
2023-03-12T15:28:41.244Z,11.37
2023-03-12T15:31:14.776Z,11.36
2023-03-12T15:33:44.595Z,11.33
2023-03-12T15:36:17.658Z,11.31
2023-03-12T15:38:47.758Z,11.29
2023-03-12T15:41:46.034Z,11.30
2023-03-12T15:44:28.364Z,11.27
2023-03-12T15:47:05.098Z,11.25
2023-03-12T15:49:36.252Z,11.23
2023-03-12T15:52:19.247Z,11.25
2023-03-12T15:55:08.958Z,11.25
2023-03-12T15:57:47.123Z,11.26
2023-03-12T16:00:24.245Z,11.24
2023-03-12T16:02:57.189Z,11.22
2023-03-12T16:05:36.686Z,11.22
2023-03-12T16:08:26.099Z,11.21
2023-03-12T16:10:53.780Z,11.17
2023-03-12T16:13:28.427Z,11.12
2023-03-12T16:15:55.663Z,11.08
2023-03-12T16:18:23.847Z,11.04
2023-03-12T16:20:53.968Z,11.01
2023-03-12T16:23:21.514Z,10.99
2023-03-12T16:25:54.340Z,10.93
2023-03-12T16:28:23.708Z,10.88
2023-03-12T16:30:51.778Z,10.84
2023-03-12T16:33:22.474Z,10.77
2023-03-12T16:35:50.747Z,10.76
2023-03-12T16:38:17.972Z,10.70
2023-03-12T16:40:49.395Z,10.64
2023-03-12T16:43:27.292Z,10.60
2023-03-12T16:45:54.499Z,10.57
2023-03-12T16:48:24.657Z,10.53
2023-03-12T16:50:55.898Z,10.49
2023-03-12T16:53:25.384Z,10.45
2023-03-12T16:55:56.742Z,10.41
2023-03-12T16:58:26.179Z,10.38
2023-03-12T17:00:54.997Z,10.38
2023-03-12T17:03:32.347Z,10.38
2023-03-12T17:06:01.730Z,10.35
2023-03-12T17:08:29.187Z,10.30
2023-03-12T17:10:57.768Z,10.29
2023-03-12T17:13:28.045Z,10.26
2023-03-12T17:15:56.685Z,10.26
2023-03-12T17:18:25.720Z,10.26
2023-03-12T17:20:53.472Z,10.23
2023-03-12T17:23:21.204Z,10.19
2023-03-12T17:25:48.789Z,10.18
2023-03-12T17:28:16.825Z,10.12
2023-03-12T17:30:44.258Z,10.10
2023-03-12T17:33:15.278Z,10.06
2023-03-12T17:35:43.809Z,10.04
2023-03-12T17:38:12.872Z,10.02
2023-03-12T17:40:43.829Z,9.98
2023-03-12T17:43:11.250Z,9.96
2023-03-12T17:45:39.173Z,9.94
2023-03-12T17:48:07.169Z,9.90
2023-03-12T17:50:35.104Z,9.83
2023-03-12T17:53:03.025Z,9.75
2023-03-12T17:55:30.938Z,9.74
2023-03-12T17:57:59.329Z,9.71
2023-03-12T18:00:27.155Z,9.65
2023-03-12T18:02:55.305Z,9.64
2023-03-12T18:05:23.096Z,9.57
2023-03-12T18:07:51.644Z,9.56
2023-03-12T18:10:20.000Z,9.50
2023-03-12T18:12:47.714Z,9.43
2023-03-12T18:15:16.962Z,9.39
2023-03-12T18:17:45.651Z,9.33
2023-03-12T18:20:28.684Z,9.31
2023-03-12T18:23:00.329Z,9.27
2023-03-12T18:25:28.061Z,9.21
2023-03-12T18:27:56.744Z,9.18
2023-03-12T18:30:24.734Z,9.15
2023-03-12T18:32:52.768Z,9.11
2023-03-12T18:35:23.220Z,9.08
2023-03-12T18:37:52.491Z,9.05
2023-03-12T18:40:20.376Z,8.98
2023-03-12T18:42:50.256Z,8.94
2023-03-12T18:45:20.260Z,8.87
2023-03-12T18:47:50.920Z,8.90
2023-03-12T18:50:18.894Z,8.90
2023-03-12T18:52:47.995Z,8.87
2023-03-12T18:55:15.944Z,8.83
2023-03-12T18:57:44.338Z,8.83
2023-03-12T19:00:15.307Z,8.80
2023-03-12T19:02:46.501Z,8.75
2023-03-12T19:05:15.237Z,8.73
2023-03-12T19:07:43.631Z,8.77
2023-03-12T19:10:12.263Z,8.74
2023-03-12T19:12:51.501Z,8.74
2023-03-12T19:15:24.557Z,8.76
2023-03-12T19:17:52.844Z,8.75
2023-03-12T19:20:22.170Z,8.74
2023-03-12T19:22:51.099Z,8.73
2023-03-12T19:25:19.046Z,8.74
2023-03-12T19:27:47.058Z,8.72
2023-03-12T19:30:15.033Z,8.70
2023-03-12T19:32:44.529Z,8.69
2023-03-12T19:35:14.945Z,8.68
2023-03-12T19:37:43.145Z,8.65
2023-03-12T19:40:11.684Z,8.65
2023-03-12T19:42:39.292Z,8.59
2023-03-12T19:45:07.411Z,8.57
2023-03-12T19:47:35.347Z,8.56
2023-03-12T19:50:03.708Z,8.48
2023-03-12T19:52:32.311Z,8.48
2023-03-12T19:55:05.146Z,8.46
2023-03-12T19:57:34.416Z,8.46
2023-03-12T20:00:02.156Z,8.45
2023-03-12T20:02:30.095Z,8.40
2023-03-12T20:04:58.778Z,8.39
2023-03-12T20:07:29.343Z,8.37
2023-03-12T20:09:57.464Z,8.33
2023-03-12T20:12:26.101Z,8.34
2023-03-12T20:14:55.332Z,8.31
2023-03-12T20:17:24.228Z,8.24
2023-03-12T20:19:52.223Z,8.24
2023-03-12T20:22:19.864Z,8.20
2023-03-12T20:24:47.376Z,8.18
2023-03-12T20:27:15.103Z,8.09
2023-03-12T20:29:44.161Z,8.11
2023-03-12T20:32:15.240Z,8.13
2023-03-12T20:34:43.405Z,8.09
2023-03-12T20:37:13.449Z,8.06
2023-03-12T20:39:42.387Z,8.04
2023-03-12T20:42:10.244Z,8.06
2023-03-12T20:44:37.728Z,8.05
2023-03-12T20:47:05.646Z,8.01
2023-03-12T20:49:34.534Z,8.02
2023-03-12T20:52:02.424Z,7.99
2023-03-12T20:54:31.332Z,7.95
2023-03-12T20:56:59.490Z,7.93
2023-03-12T20:59:27.397Z,7.95
2023-03-12T21:01:55.595Z,7.94
2023-03-12T21:04:24.605Z,7.90
2023-03-12T21:06:52.571Z,7.90
2023-03-12T21:09:23.610Z,7.90
2023-03-12T21:11:51.083Z,7.90
2023-03-12T21:14:18.363Z,7.88
2023-03-12T21:16:45.811Z,7.92
2023-03-12T21:19:13.259Z,7.87
2023-03-12T21:21:40.484Z,7.83
2023-03-12T21:24:08.983Z,7.85
2023-03-12T21:26:36.065Z,7.84
2023-03-12T21:29:03.604Z,7.80
2023-03-12T21:31:30.969Z,7.80
2023-03-12T21:33:59.667Z,7.81
2023-03-12T21:36:26.837Z,7.76
2023-03-12T21:38:54.329Z,7.76
2023-03-12T21:41:22.266Z,7.72
2023-03-12T21:43:49.284Z,7.73
2023-03-12T21:46:19.887Z,7.69
2023-03-12T21:48:48.252Z,7.66
2023-03-12T21:51:17.249Z,7.66
2023-03-12T21:53:44.129Z,7.62
2023-03-12T21:56:11.558Z,7.64
2023-03-12T21:58:38.522Z,7.61
2023-03-12T22:01:23.549Z,7.60
2023-03-12T22:03:50.653Z,7.60
2023-03-12T22:06:17.556Z,7.59
2023-03-12T22:08:47.073Z,7.57
2023-03-12T22:11:14.931Z,7.57
2023-03-12T22:13:42.249Z,7.57
2023-03-12T22:16:09.623Z,7.57
2023-03-12T22:18:42.089Z,7.56
2023-03-12T22:21:14.533Z,7.57
2023-03-12T22:23:41.356Z,7.55
2023-03-12T22:26:08.587Z,7.55
2023-03-12T22:28:35.853Z,7.57
2023-03-12T22:31:05.454Z,7.56
2023-03-12T22:33:33.841Z,7.59
2023-03-12T22:36:03.961Z,7.59
2023-03-12T22:38:30.808Z,7.59
2023-03-12T22:40:57.585Z,7.57
2023-03-12T22:43:27.680Z,7.54
2023-03-12T22:45:54.758Z,7.53
2023-03-12T22:48:21.589Z,7.55
2023-03-12T22:50:54.395Z,7.54
2023-03-12T22:53:21.497Z,7.54
2023-03-12T22:55:56.708Z,7.53
2023-03-12T22:58:23.559Z,7.52
2023-03-12T23:00:50.401Z,7.49
2023-03-12T23:03:17.222Z,7.46
2023-03-12T23:05:44.025Z,7.41
2023-03-12T23:08:10.852Z,7.39
2023-03-12T23:10:37.648Z,7.37
2023-03-12T23:13:04.507Z,7.36
2023-03-12T23:15:40.461Z,7.36
2023-03-12T23:18:08.424Z,7.35
2023-03-12T23:20:35.185Z,7.36
2023-03-12T23:23:01.996Z,7.35
2023-03-12T23:25:28.807Z,7.36
2023-03-12T23:27:55.657Z,7.35
2023-03-12T23:30:22.502Z,7.32
2023-03-12T23:32:49.450Z,7.33
2023-03-12T23:35:16.294Z,7.31
2023-03-12T23:37:43.113Z,7.29
2023-03-12T23:40:11.310Z,7.26
2023-03-12T23:42:38.120Z,7.25
2023-03-12T23:45:05.498Z,7.23
2023-03-12T23:47:32.299Z,7.21
2023-03-12T23:49:59.118Z,7.18
2023-03-12T23:52:26.920Z,7.18
2023-03-12T23:54:53.737Z,7.17
2023-03-12T23:57:20.561Z,7.16
2023-03-12T23:59:47.475Z,7.14
